createdAt,value
2023-01-22T00:01:39.868Z,91.98
2023-01-22T00:03:46.569Z,91.63
2023-01-22T00:05:52.665Z,91.03
2023-01-22T00:07:55.918Z,92.02
2023-01-22T00:10:00.401Z,91.72
2023-01-22T00:12:03.608Z,91.68
2023-01-22T00:14:06.789Z,92.76
2023-01-22T00:16:12.474Z,92.68
2023-01-22T00:18:15.768Z,92.11
2023-01-22T00:20:20.410Z,92.67
2023-01-22T00:22:23.627Z,91.52
2023-01-22T00:24:26.647Z,91.77
2023-01-22T00:26:29.541Z,91.86
2023-01-22T00:28:32.673Z,92.81
2023-01-22T00:30:35.693Z,91.86
2023-01-22T00:32:38.550Z,91.82
2023-01-22T00:34:41.506Z,92.43
2023-01-22T00:36:45.827Z,92.07
2023-01-22T00:38:52.107Z,92.59
2023-01-22T00:40:54.998Z,91.95
2023-01-22T00:42:58.177Z,93.04
2023-01-22T00:45:00.999Z,93.17
2023-01-22T00:47:04.103Z,92.70
2023-01-22T00:49:06.956Z,93.48
2023-01-22T00:51:10.566Z,93.02
2023-01-22T00:53:15.356Z,92.40
2023-01-22T00:55:18.417Z,91.46
2023-01-22T00:57:22.271Z,91.99
2023-01-22T00:59:25.407Z,91.56
2023-01-22T01:01:28.708Z,92.35
2023-01-22T01:03:34.288Z,91.36
2023-01-22T01:05:37.330Z,91.28
2023-01-22T01:07:40.267Z,91.22
2023-01-22T01:09:44.579Z,91.00
2023-01-22T01:11:47.647Z,90.82
2023-01-22T01:13:51.977Z,91.82
2023-01-22T01:16:00.896Z,91.80
2023-01-22T01:18:04.095Z,91.22
2023-01-22T01:20:07.945Z,91.05
2023-01-22T01:22:11.167Z,91.21
2023-01-22T01:24:15.626Z,90.92
2023-01-22T01:26:20.771Z,90.81
2023-01-22T01:28:25.128Z,92.20
2023-01-22T01:30:28.077Z,91.65
2023-01-22T01:32:31.087Z,91.56
2023-01-22T01:34:34.169Z,91.44
2023-01-22T01:36:49.130Z,90.43
2023-01-22T01:38:53.037Z,90.73
2023-01-22T01:40:56.054Z,91.53
2023-01-22T01:43:00.609Z,90.71
2023-01-22T01:45:19.617Z,90.94
2023-01-22T01:47:32.626Z,90.75
2023-01-22T01:49:38.391Z,90.72
2023-01-22T01:51:41.287Z,90.79
2023-01-22T01:53:46.765Z,91.47
2023-01-22T01:55:50.746Z,92.07
2023-01-22T01:57:55.763Z,91.96
2023-01-22T02:00:04.749Z,91.36
2023-01-22T02:02:17.134Z,92.64
2023-01-22T02:04:20.183Z,92.19
2023-01-22T02:06:23.168Z,92.75
2023-01-22T02:08:26.568Z,91.71
2023-01-22T02:10:29.622Z,91.95
2023-01-22T02:12:34.290Z,92.59
2023-01-22T02:14:42.287Z,92.32
2023-01-22T02:16:46.647Z,92.58
2023-01-22T02:18:50.200Z,91.18
2023-01-22T02:20:59.956Z,91.56
2023-01-22T02:23:02.967Z,92.44
2023-01-22T02:25:07.807Z,91.46
2023-01-22T02:27:10.807Z,92.66
2023-01-22T02:29:14.768Z,91.58
2023-01-22T02:31:17.711Z,92.34
2023-01-22T02:33:20.557Z,92.25
2023-01-22T02:35:23.477Z,92.37
2023-01-22T02:37:27.839Z,91.04
2023-01-22T02:39:32.208Z,92.39
2023-01-22T02:41:38.377Z,92.76
2023-01-22T02:43:41.447Z,91.69
2023-01-22T02:45:44.423Z,91.41
2023-01-22T02:47:47.896Z,91.52
2023-01-22T02:49:50.729Z,91.69
2023-01-22T02:51:53.808Z,92.27
2023-01-22T02:53:59.286Z,91.63
2023-01-22T02:56:06.158Z,91.82
2023-01-22T02:58:09.398Z,92.02
2023-01-22T03:00:15.253Z,91.93
2023-01-22T03:02:18.455Z,92.64
2023-01-22T03:04:23.347Z,91.51
2023-01-22T03:06:28.047Z,91.57
2023-01-22T03:08:33.937Z,91.91
2023-01-22T03:10:38.287Z,91.53
2023-01-22T03:12:59.933Z,92.53
2023-01-22T03:15:21.489Z,92.81
2023-01-22T03:17:43.151Z,92.76
2023-01-22T03:20:04.987Z,92.82
2023-01-22T03:22:08.007Z,91.67
2023-01-22T03:24:10.927Z,91.78
2023-01-22T03:26:16.287Z,91.90
2023-01-22T03:28:19.705Z,91.94
2023-01-22T03:30:30.407Z,92.60
2023-01-22T03:32:34.073Z,91.55
2023-01-22T03:34:37.651Z,92.56
2023-01-22T03:36:41.847Z,91.60
2023-01-22T03:38:46.607Z,91.64
2023-01-22T03:40:53.837Z,92.45
2023-01-22T03:42:59.890Z,92.34
2023-01-22T03:45:03.594Z,92.22
2023-01-22T03:47:08.099Z,91.96
2023-01-22T03:49:13.627Z,92.63
2023-01-22T03:51:18.083Z,91.67
2023-01-22T03:53:20.967Z,92.50
2023-01-22T03:55:25.775Z,91.98
2023-01-22T03:57:31.286Z,92.28
2023-01-22T03:59:35.789Z,92.00
2023-01-22T04:01:39.334Z,92.21
2023-01-22T04:03:42.737Z,92.20
2023-01-22T04:05:47.272Z,92.38
2023-01-22T04:07:51.126Z,92.75
2023-01-22T04:09:57.808Z,91.55
2023-01-22T04:12:01.417Z,92.90
2023-01-22T04:14:04.727Z,92.24
2023-01-22T04:16:12.126Z,92.72
2023-01-22T04:18:41.647Z,91.72
2023-01-22T04:21:03.190Z,91.97
2023-01-22T04:23:15.607Z,92.03
2023-01-22T04:25:18.726Z,91.82
2023-01-22T04:27:21.547Z,92.28
2023-01-22T04:29:27.455Z,92.60
2023-01-22T04:31:32.308Z,92.81
2023-01-22T04:33:55.616Z,92.91
2023-01-22T04:36:02.708Z,91.89
2023-01-22T04:38:07.916Z,92.45
2023-01-22T04:40:12.007Z,93.05
2023-01-22T04:42:15.068Z,93.12
2023-01-22T04:44:18.288Z,92.80
2023-01-22T04:46:21.539Z,93.60
2023-01-22T04:48:26.587Z,93.14
2023-01-22T04:50:32.736Z,93.74
2023-01-22T04:52:35.668Z,92.82
2023-01-22T04:54:38.649Z,93.25
2023-01-22T04:56:41.597Z,92.36
2023-01-22T04:58:44.607Z,93.22
2023-01-22T05:00:49.591Z,92.98
2023-01-22T05:02:57.611Z,92.33
2023-01-22T05:05:02.076Z,92.71
2023-01-22T05:07:05.057Z,93.02
2023-01-22T05:09:08.072Z,93.15
2023-01-22T05:11:25.617Z,92.78
2023-01-22T05:13:33.326Z,92.60
2023-01-22T05:15:36.592Z,92.65
2023-01-22T05:17:44.847Z,92.76
2023-01-22T05:19:48.098Z,93.01
2023-01-22T05:21:56.429Z,92.63
2023-01-22T05:23:59.472Z,92.63
2023-01-22T05:26:04.767Z,91.98
2023-01-22T05:28:23.607Z,92.09
2023-01-22T05:30:43.918Z,92.02
2023-01-22T05:32:59.809Z,92.48
2023-01-22T05:35:05.080Z,92.43
2023-01-22T05:37:12.576Z,92.50
2023-01-22T05:39:16.927Z,91.60
2023-01-22T05:41:20.097Z,91.62
2023-01-22T05:43:23.654Z,92.05
2023-01-22T05:45:31.542Z,91.50
2023-01-22T05:47:52.830Z,91.18
2023-01-22T05:50:22.137Z,91.06
2023-01-22T05:52:38.527Z,91.59
2023-01-22T05:54:41.497Z,91.60
2023-01-22T05:56:44.646Z,92.07
2023-01-22T05:58:48.256Z,91.82
2023-01-22T06:00:53.167Z,92.08
2023-01-22T06:03:01.331Z,91.85
2023-01-22T06:05:10.377Z,92.12
2023-01-22T06:07:13.272Z,91.85
2023-01-22T06:09:17.848Z,91.91
2023-01-22T06:11:20.813Z,92.08
2023-01-22T06:13:23.820Z,91.79
2023-01-22T06:15:30.420Z,91.94
2023-01-22T06:17:45.329Z,91.76
2023-01-22T06:19:50.272Z,92.34
2023-01-22T06:21:54.789Z,91.82
2023-01-22T06:24:06.529Z,91.86
2023-01-22T06:26:11.048Z,91.75
2023-01-22T06:28:14.930Z,91.64
2023-01-22T06:30:20.376Z,91.67
2023-01-22T06:32:23.529Z,91.72
2023-01-22T06:34:27.908Z,91.78
2023-01-22T06:36:31.329Z,91.92
2023-01-22T06:38:34.613Z,92.25
2023-01-22T06:40:39.619Z,91.30
2023-01-22T06:42:45.022Z,91.96
2023-01-22T06:44:48.197Z,91.47
2023-01-22T06:46:51.258Z,91.84
2023-01-22T06:49:01.991Z,91.55
2023-01-22T06:51:05.363Z,92.06
2023-01-22T06:53:08.478Z,91.51
2023-01-22T06:55:12.371Z,91.62
2023-01-22T06:57:15.678Z,91.37
2023-01-22T06:59:20.169Z,91.74
2023-01-22T07:01:23.353Z,91.77
2023-01-22T07:03:26.620Z,91.70
2023-01-22T07:05:29.481Z,91.59
2023-01-22T07:07:32.470Z,91.74
2023-01-22T07:09:35.640Z,91.20
2023-01-22T07:11:38.610Z,91.30
2023-01-22T07:13:41.569Z,91.14
2023-01-22T07:15:46.013Z,91.23
2023-01-22T07:17:51.386Z,90.76
2023-01-22T07:19:54.394Z,91.02
2023-01-22T07:21:58.688Z,91.06
2023-01-22T07:24:01.895Z,90.67
2023-01-22T07:26:05.230Z,90.85
2023-01-22T07:28:08.765Z,91.14
2023-01-22T07:30:12.708Z,91.50
2023-01-22T07:32:17.478Z,90.65
2023-01-22T07:34:20.708Z,91.08
2023-01-22T07:36:24.213Z,91.11
2023-01-22T07:38:28.607Z,91.25
2023-01-22T07:40:31.803Z,91.08
2023-01-22T07:42:34.808Z,90.88
2023-01-22T07:44:40.633Z,91.57
2023-01-22T07:46:43.610Z,91.35
2023-01-22T07:48:47.976Z,91.13
2023-01-22T07:50:50.996Z,91.05
2023-01-22T07:52:54.652Z,91.14
2023-01-22T07:54:57.499Z,91.07
2023-01-22T07:57:00.389Z,91.29
2023-01-22T07:59:03.327Z,91.38
2023-01-22T08:01:06.957Z,91.34
2023-01-22T08:03:14.779Z,91.56
2023-01-22T08:05:19.352Z,91.92
2023-01-22T08:07:23.748Z,91.78
2023-01-22T08:09:26.759Z,91.64
2023-01-22T08:11:29.769Z,91.54
2023-01-22T08:13:32.828Z,91.51
2023-01-22T08:15:36.030Z,91.27
2023-01-22T08:17:39.731Z,91.39
2023-01-22T08:19:42.660Z,91.22
2023-01-22T08:21:47.249Z,91.53
2023-01-22T08:23:50.210Z,91.08
2023-01-22T08:25:53.213Z,90.54
2023-01-22T08:27:56.588Z,90.96
2023-01-22T08:29:59.609Z,90.15
2023-01-22T08:32:02.561Z,89.51
2023-01-22T08:34:05.792Z,89.62
2023-01-22T08:36:09.769Z,89.73
2023-01-22T08:38:14.319Z,89.74
2023-01-22T08:40:18.838Z,88.86
2023-01-22T08:42:21.983Z,89.41
2023-01-22T08:44:25.260Z,89.72
2023-01-22T08:46:28.538Z,89.25
2023-01-22T08:48:31.491Z,89.42
2023-01-22T08:50:34.500Z,89.61
2023-01-22T08:52:37.450Z,89.92
2023-01-22T08:54:41.841Z,89.85
2023-01-22T08:56:44.688Z,89.59
2023-01-22T08:58:50.353Z,89.76
2023-01-22T09:00:52.962Z,89.62
2023-01-22T09:02:59.198Z,89.33
2023-01-22T09:05:02.069Z,89.17
2023-01-22T09:07:05.136Z,88.54
2023-01-22T09:09:08.239Z,87.99
2023-01-22T09:11:12.707Z,88.05
2023-01-22T09:13:15.582Z,88.89
2023-01-22T09:15:18.688Z,88.84
2023-01-22T09:17:21.576Z,88.01
2023-01-22T09:19:25.039Z,87.33
2023-01-22T09:21:27.938Z,87.82
2023-01-22T09:23:30.969Z,87.80
2023-01-22T09:25:33.828Z,86.92
2023-01-22T09:27:38.413Z,87.01
2023-01-22T09:29:41.250Z,87.43
2023-01-22T09:31:44.294Z,87.57
2023-01-22T09:33:47.280Z,87.07
2023-01-22T09:35:50.238Z,87.55
2023-01-22T09:37:53.248Z,87.21
2023-01-22T09:39:56.231Z,87.80
2023-01-22T09:42:01.423Z,88.35
2023-01-22T09:44:11.864Z,88.67
2023-01-22T09:46:20.425Z,88.13
2023-01-22T09:48:25.077Z,88.45
2023-01-22T09:50:30.738Z,87.66
2023-01-22T09:52:37.978Z,87.38
2023-01-22T09:54:42.607Z,87.54
2023-01-22T09:56:47.709Z,87.95
2023-01-22T09:58:52.247Z,88.43
2023-01-22T10:01:00.748Z,87.88
2023-01-22T10:03:07.393Z,88.35
2023-01-22T10:05:20.499Z,87.01
2023-01-22T10:07:26.268Z,88.30
2023-01-22T10:09:32.249Z,87.99
2023-01-22T10:11:35.177Z,87.95
2023-01-22T10:13:39.624Z,87.89
2023-01-22T10:15:42.974Z,88.52
2023-01-22T10:17:48.567Z,88.39
2023-01-22T10:19:56.177Z,88.12
2023-01-22T10:22:01.748Z,87.97
2023-01-22T10:24:04.748Z,87.88
2023-01-22T10:26:16.704Z,88.87
2023-01-22T10:28:26.015Z,88.04
2023-01-22T10:30:30.646Z,87.63
2023-01-22T10:32:33.866Z,88.01
2023-01-22T10:34:38.251Z,87.70
2023-01-22T10:36:41.177Z,88.59
2023-01-22T10:38:44.089Z,88.37
2023-01-22T10:40:46.968Z,88.12
2023-01-22T10:43:01.302Z,87.77
2023-01-22T10:45:16.788Z,88.30
2023-01-22T10:47:22.855Z,88.02
2023-01-22T10:49:27.127Z,88.05
2023-01-22T10:51:35.051Z,89.27
2023-01-22T10:53:44.399Z,88.41
2023-01-22T10:55:54.207Z,88.60
2023-01-22T10:58:05.091Z,89.22
2023-01-22T11:00:23.837Z,88.78
2023-01-22T11:02:27.163Z,87.97
2023-01-22T11:04:32.248Z,88.63
2023-01-22T11:06:42.314Z,88.42
2023-01-22T11:08:50.654Z,88.21
2023-01-22T11:10:57.047Z,88.27
2023-01-22T11:13:06.419Z,88.08
2023-01-22T11:15:21.708Z,87.99
2023-01-22T11:17:31.607Z,88.64
2023-01-22T11:19:41.396Z,88.02
2023-01-22T11:21:47.809Z,88.26
2023-01-22T11:23:56.373Z,88.03
2023-01-22T11:26:10.168Z,88.68
2023-01-22T11:28:34.089Z,87.66
2023-01-22T11:30:53.902Z,88.89
2023-01-22T11:33:05.650Z,87.82
2023-01-22T11:35:19.623Z,88.71
2023-01-22T11:37:46.614Z,87.93
2023-01-22T11:40:01.468Z,88.93
2023-01-22T11:42:13.855Z,88.41
2023-01-22T11:44:41.118Z,88.80
2023-01-22T11:47:01.367Z,88.06
2023-01-22T11:49:14.048Z,88.41
2023-01-22T11:51:24.754Z,89.29
2023-01-22T11:53:48.748Z,88.44
2023-01-22T11:56:11.128Z,87.90
2023-01-22T11:58:25.129Z,88.02
2023-01-22T12:00:42.657Z,88.50
2023-01-22T12:03:21.174Z,88.07
2023-01-22T12:05:36.727Z,89.28
2023-01-22T12:07:58.153Z,89.07
2023-01-22T12:10:23.500Z,89.76
2023-01-22T12:12:41.892Z,89.14
2023-01-22T12:15:11.790Z,88.98
2023-01-22T12:17:25.683Z,89.60
2023-01-22T12:19:47.850Z,88.46
2023-01-22T12:21:58.692Z,89.26
2023-01-22T12:24:09.507Z,88.98
2023-01-22T12:26:18.158Z,89.31
2023-01-22T12:28:27.008Z,89.50
2023-01-22T12:30:38.333Z,88.59
2023-01-22T12:32:46.908Z,89.57
2023-01-22T12:34:55.657Z,88.90
2023-01-22T12:37:00.819Z,89.53
2023-01-22T12:39:14.064Z,89.79
2023-01-22T12:41:41.458Z,89.22
2023-01-22T12:43:51.040Z,89.43
2023-01-22T12:45:59.382Z,90.05
2023-01-22T12:48:11.969Z,89.78
2023-01-22T12:50:19.486Z,89.68
2023-01-22T12:52:33.112Z,90.05
2023-01-22T12:54:37.116Z,90.59
2023-01-22T12:56:41.527Z,90.19
2023-01-22T12:58:44.607Z,91.23
2023-01-22T13:00:47.590Z,90.67
2023-01-22T13:02:50.972Z,90.27
2023-01-22T13:04:54.778Z,89.64
2023-01-22T13:07:21.048Z,90.83
2023-01-22T13:09:26.096Z,90.01
2023-01-22T13:11:32.158Z,90.00
2023-01-22T13:13:44.743Z,90.06
2023-01-22T13:15:55.014Z,91.40
2023-01-22T13:18:07.101Z,91.70
2023-01-22T13:20:16.940Z,91.48
2023-01-22T13:22:24.045Z,90.90
2023-01-22T13:24:27.128Z,91.39
2023-01-22T13:26:31.887Z,91.53
2023-01-22T13:28:36.297Z,92.36
2023-01-22T13:30:39.342Z,91.33
2023-01-22T13:32:42.428Z,91.73
2023-01-22T13:34:45.430Z,92.47
2023-01-22T13:36:50.589Z,91.55
2023-01-22T13:38:55.335Z,92.34
2023-01-22T13:41:00.914Z,92.44
2023-01-22T13:43:06.308Z,91.72
2023-01-22T13:45:19.771Z,92.20
2023-01-22T13:47:28.782Z,91.82
2023-01-22T13:49:33.648Z,92.07
2023-01-22T13:51:37.418Z,92.37
2023-01-22T13:53:43.311Z,92.59
2023-01-22T13:55:46.583Z,92.95
2023-01-22T13:57:51.670Z,92.16
2023-01-22T13:59:56.157Z,92.65
2023-01-22T14:02:11.550Z,92.71
2023-01-22T14:04:32.388Z,93.02
2023-01-22T14:06:46.525Z,93.18
2023-01-22T14:08:50.879Z,93.24
2023-01-22T14:10:57.939Z,93.34
2023-01-22T14:13:01.828Z,92.79
2023-01-22T14:15:15.070Z,92.46
2023-01-22T14:17:24.258Z,92.94
2023-01-22T14:19:27.248Z,93.06
2023-01-22T14:21:30.660Z,93.24
2023-01-22T14:23:34.120Z,93.04
2023-01-22T14:25:37.829Z,93.09
2023-01-22T14:27:43.271Z,93.07
2023-01-22T14:29:46.358Z,93.39
2023-01-22T14:31:49.373Z,93.08
2023-01-22T14:33:53.848Z,92.66
2023-01-22T14:35:57.298Z,93.08
2023-01-22T14:38:00.317Z,93.26
2023-01-22T14:40:04.209Z,92.79
2023-01-22T14:42:07.114Z,93.00
2023-01-22T14:44:11.177Z,92.96
2023-01-22T14:46:14.059Z,92.83
2023-01-22T14:48:19.629Z,92.64
2023-01-22T14:50:23.837Z,92.62
2023-01-22T14:52:26.901Z,92.60
2023-01-22T14:54:29.891Z,92.59
2023-01-22T14:56:32.890Z,93.34
2023-01-22T14:58:36.575Z,92.70
2023-01-22T15:00:40.121Z,92.41
2023-01-22T15:02:43.172Z,91.85
2023-01-22T15:04:46.860Z,91.89
2023-01-22T15:06:51.311Z,92.80
2023-01-22T15:08:54.367Z,92.52
2023-01-22T15:11:00.208Z,92.15
2023-01-22T15:13:03.206Z,92.83
2023-01-22T15:15:09.300Z,91.96
2023-01-22T15:17:12.238Z,91.82
2023-01-22T15:19:17.551Z,91.87
2023-01-22T15:21:21.450Z,92.40
2023-01-22T15:23:25.979Z,92.51
2023-01-22T15:25:29.270Z,92.12
2023-01-22T15:27:32.198Z,92.12
2023-01-22T15:29:35.268Z,92.03
2023-01-22T15:31:38.575Z,91.93
2023-01-22T15:33:41.939Z,91.88
2023-01-22T15:35:45.158Z,91.88
2023-01-22T15:37:48.860Z,92.42
2023-01-22T15:39:53.309Z,92.26
2023-01-22T15:41:56.305Z,91.74
2023-01-22T15:44:01.767Z,92.60
2023-01-22T15:46:05.080Z,92.72
2023-01-22T15:48:08.464Z,92.78
2023-01-22T15:50:12.288Z,92.58
2023-01-22T15:52:15.175Z,92.69
2023-01-22T15:54:18.098Z,92.18
2023-01-22T15:56:27.083Z,92.21
2023-01-22T15:58:32.168Z,92.81
2023-01-22T16:00:36.412Z,93.10
2023-01-22T16:02:40.712Z,93.02
2023-01-22T16:04:44.247Z,93.00
2023-01-22T16:06:47.971Z,92.77
2023-01-22T16:08:53.136Z,93.27
2023-01-22T16:10:56.762Z,93.19
2023-01-22T16:13:03.193Z,92.79
2023-01-22T16:15:09.218Z,92.90
2023-01-22T16:17:12.047Z,93.41
2023-01-22T16:19:15.432Z,92.57
2023-01-22T16:21:20.742Z,93.58
2023-01-22T16:23:24.871Z,93.38
2023-01-22T16:25:28.609Z,92.64
2023-01-22T16:27:31.951Z,92.95
2023-01-22T16:29:36.827Z,93.66
2023-01-22T16:31:39.978Z,92.78
2023-01-22T16:33:45.045Z,92.96
2023-01-22T16:35:48.206Z,93.79
2023-01-22T16:37:51.164Z,93.38
2023-01-22T16:39:54.155Z,93.13
2023-01-22T16:41:57.333Z,93.58
2023-01-22T16:44:02.068Z,93.34
2023-01-22T16:46:06.417Z,93.37
2023-01-22T16:48:09.477Z,93.08
2023-01-22T16:50:12.415Z,93.39
2023-01-22T16:52:22.381Z,93.35
2023-01-22T16:54:30.600Z,92.95
2023-01-22T16:56:33.768Z,92.95
2023-01-22T16:58:37.326Z,92.95
2023-01-22T17:00:40.285Z,92.89
2023-01-22T17:02:44.575Z,93.35
2023-01-22T17:04:47.593Z,93.00
2023-01-22T17:06:52.087Z,93.43
2023-01-22T17:08:55.337Z,92.82
2023-01-22T17:10:58.300Z,93.25
2023-01-22T17:13:01.156Z,93.60
2023-01-22T17:15:04.347Z,93.90
2023-01-22T17:17:08.886Z,93.40
2023-01-22T17:19:13.647Z,93.18
2023-01-22T17:21:18.315Z,93.46
2023-01-22T17:23:21.178Z,92.75
2023-01-22T17:25:24.080Z,93.25
2023-01-22T17:27:26.878Z,93.48
2023-01-22T17:29:32.215Z,93.56
2023-01-22T17:31:35.289Z,92.69
2023-01-22T17:33:38.920Z,92.90
2023-01-22T17:35:43.164Z,93.36
2023-01-22T17:37:46.324Z,93.14
2023-01-22T17:39:50.965Z,93.73
2023-01-22T17:41:54.117Z,93.28
2023-01-22T17:43:58.971Z,93.95
2023-01-22T17:46:01.971Z,94.97
2023-01-22T17:48:05.267Z,94.49
2023-01-22T17:50:09.287Z,93.99
2023-01-22T17:52:14.837Z,94.11
2023-01-22T17:54:17.657Z,94.89
2023-01-22T17:56:22.398Z,94.88
2023-01-22T17:58:25.287Z,94.81
2023-01-22T18:00:28.166Z,95.62
2023-01-22T18:02:31.359Z,94.47
2023-01-22T18:04:35.257Z,95.29
2023-01-22T18:06:39.496Z,94.22
2023-01-22T18:08:44.050Z,94.40
2023-01-22T18:10:46.997Z,95.70
2023-01-22T18:12:49.796Z,94.97
2023-01-22T18:14:52.677Z,95.52
2023-01-22T18:16:58.208Z,95.61
2023-01-22T18:19:03.696Z,94.64
2023-01-22T18:21:07.755Z,95.07
2023-01-22T18:23:11.006Z,94.99
2023-01-22T18:25:15.458Z,94.49
2023-01-22T18:27:18.425Z,94.83
2023-01-22T18:29:21.399Z,94.65
2023-01-22T18:31:25.861Z,94.12
2023-01-22T18:33:28.827Z,93.85
2023-01-22T18:35:34.898Z,94.25
2023-01-22T18:37:38.319Z,94.80
2023-01-22T18:39:41.368Z,94.22
2023-01-22T18:41:47.345Z,94.68
2023-01-22T18:43:53.719Z,93.92
2023-01-22T18:46:02.063Z,93.92
2023-01-22T18:48:05.726Z,93.73
2023-01-22T18:50:12.252Z,94.53
2023-01-22T18:52:15.608Z,94.26
2023-01-22T18:54:18.572Z,95.15
2023-01-22T18:56:21.926Z,94.97
2023-01-22T18:58:34.277Z,95.24
2023-01-22T19:00:38.266Z,94.90
2023-01-22T19:02:41.530Z,94.48
2023-01-22T19:04:44.459Z,94.41
2023-01-22T19:06:52.178Z,94.25
2023-01-22T19:08:57.076Z,94.61
2023-01-22T19:11:06.707Z,94.67
2023-01-22T19:13:10.005Z,94.46
2023-01-22T19:15:14.326Z,94.52
2023-01-22T19:17:17.489Z,94.77
2023-01-22T19:19:21.841Z,95.38
2023-01-22T19:21:25.787Z,95.11
2023-01-22T19:23:28.717Z,94.35
2023-01-22T19:25:32.037Z,94.77
2023-01-22T19:27:35.010Z,95.00
2023-01-22T19:29:38.008Z,94.38
2023-01-22T19:31:46.208Z,95.07
2023-01-22T19:33:51.887Z,94.43
2023-01-22T19:35:54.842Z,94.15
2023-01-22T19:37:57.847Z,94.08
2023-01-22T19:40:00.767Z,94.69
2023-01-22T19:42:05.447Z,94.20
2023-01-22T19:44:09.779Z,95.48
2023-01-22T19:46:14.426Z,94.56
2023-01-22T19:48:18.988Z,95.07
2023-01-22T19:50:25.489Z,95.08
2023-01-22T19:52:28.808Z,94.23
2023-01-22T19:54:31.968Z,94.20
2023-01-22T19:56:37.250Z,93.94
2023-01-22T19:58:40.177Z,94.04
2023-01-22T20:00:43.143Z,94.89
2023-01-22T20:02:46.367Z,94.59
2023-01-22T20:04:50.726Z,94.54
2023-01-22T20:06:57.798Z,94.33
2023-01-22T20:09:00.728Z,94.81
2023-01-22T20:11:05.007Z,94.96
2023-01-22T20:13:09.965Z,94.49
2023-01-22T20:15:14.874Z,93.96
2023-01-22T20:17:18.527Z,94.72
2023-01-22T20:19:21.746Z,93.60
2023-01-22T20:21:27.337Z,94.85
2023-01-22T20:23:30.382Z,94.22
2023-01-22T20:25:33.372Z,93.49
2023-01-22T20:27:36.769Z,94.13
2023-01-22T20:29:41.002Z,94.25
2023-01-22T20:31:45.044Z,93.90
2023-01-22T20:33:48.141Z,93.82
2023-01-22T20:35:51.037Z,93.84
2023-01-22T20:37:55.411Z,94.36
2023-01-22T20:40:00.318Z,93.66
2023-01-22T20:42:03.267Z,93.82
2023-01-22T20:44:06.858Z,94.10
2023-01-22T20:46:13.307Z,94.24
2023-01-22T20:48:17.479Z,94.11
2023-01-22T20:50:20.668Z,93.46
2023-01-22T20:52:23.657Z,94.29
2023-01-22T20:54:28.570Z,94.08
2023-01-22T20:56:33.188Z,94.15
2023-01-22T20:58:36.798Z,94.24
2023-01-22T21:00:40.179Z,93.62
2023-01-22T21:02:43.089Z,93.85
2023-01-22T21:04:46.508Z,94.04
2023-01-22T21:06:49.358Z,93.58
2023-01-22T21:08:56.458Z,93.75
2023-01-22T21:11:02.702Z,93.94
2023-01-22T21:13:05.578Z,93.74
2023-01-22T21:15:09.889Z,94.29
2023-01-22T21:17:12.887Z,93.92
2023-01-22T21:19:22.109Z,94.64
2023-01-22T21:21:25.690Z,94.30
2023-01-22T21:23:28.547Z,94.56
2023-01-22T21:25:31.430Z,93.58
2023-01-22T21:27:35.849Z,94.03
2023-01-22T21:29:39.808Z,94.31
2023-01-22T21:31:43.706Z,93.43
2023-01-22T21:33:47.147Z,93.81
2023-01-22T21:35:50.451Z,93.57
2023-01-22T21:37:53.459Z,94.39
2023-01-22T21:39:56.347Z,94.38
2023-01-22T21:42:19.621Z,94.63
2023-01-22T21:44:42.527Z,93.98
2023-01-22T21:46:46.586Z,94.17
2023-01-22T21:48:49.817Z,94.01
2023-01-22T21:50:52.786Z,94.53
2023-01-22T21:52:55.733Z,94.12
2023-01-22T21:54:59.457Z,94.10
2023-01-22T21:57:03.245Z,94.32
2023-01-22T21:59:06.191Z,93.90
2023-01-22T22:01:11.410Z,94.37
2023-01-22T22:03:16.351Z,93.91
2023-01-22T22:05:19.448Z,93.66
2023-01-22T22:07:22.347Z,93.68
2023-01-22T22:09:27.467Z,94.56
2023-01-22T22:11:30.578Z,93.60
2023-01-22T22:13:35.435Z,94.58
2023-01-22T22:15:39.297Z,94.67
2023-01-22T22:17:45.127Z,93.67
2023-01-22T22:19:48.217Z,94.60
2023-01-22T22:21:51.519Z,93.65
2023-01-22T22:23:57.317Z,93.68
2023-01-22T22:26:01.047Z,94.15
2023-01-22T22:28:04.455Z,95.00
2023-01-22T22:30:08.809Z,94.25
2023-01-22T22:32:12.017Z,93.73
2023-01-22T22:34:16.451Z,94.36
2023-01-22T22:36:21.696Z,94.27
2023-01-22T22:38:24.557Z,93.70
2023-01-22T22:40:27.567Z,93.82
2023-01-22T22:42:30.968Z,94.20
2023-01-22T22:44:35.958Z,94.61
2023-01-22T22:46:40.288Z,94.71
2023-01-22T22:48:43.817Z,93.82
2023-01-22T22:50:48.350Z,94.19
2023-01-22T22:52:51.369Z,94.50
2023-01-22T22:54:54.216Z,93.83
2023-01-22T22:56:57.210Z,94.12
2023-01-22T22:59:04.015Z,94.43
2023-01-22T23:01:08.380Z,94.02
2023-01-22T23:03:11.256Z,93.86
2023-01-22T23:05:14.187Z,94.08
2023-01-22T23:07:18.778Z,94.35
2023-01-22T23:09:21.814Z,94.79
2023-01-22T23:11:27.262Z,94.82
2023-01-22T23:13:30.288Z,94.78
2023-01-22T23:15:34.007Z,94.76
2023-01-22T23:17:36.970Z,94.41
2023-01-22T23:19:39.929Z,94.60
2023-01-22T23:21:43.173Z,94.33
2023-01-22T23:23:47.787Z,94.12
2023-01-22T23:25:50.857Z,93.92
2023-01-22T23:27:55.902Z,94.54
2023-01-22T23:29:58.758Z,94.78
2023-01-22T23:32:01.808Z,94.67
2023-01-22T23:34:06.977Z,94.78
2023-01-22T23:36:12.408Z,94.09
2023-01-22T23:38:15.568Z,95.00
2023-01-22T23:40:20.304Z,95.08
2023-01-22T23:42:23.579Z,94.66
2023-01-22T23:44:26.846Z,94.11
2023-01-22T23:46:31.199Z,94.45
2023-01-22T23:48:34.168Z,94.64
2023-01-22T23:50:37.090Z,94.34
2023-01-22T23:52:39.878Z,94.34
2023-01-22T23:54:43.019Z,95.00
2023-01-22T23:56:47.409Z,94.50
2023-01-22T23:58:53.167Z,94.81
